createdAt,value
2022-09-11T00:02:07.385Z,5.20
2022-09-11T00:04:52.942Z,5.80
2022-09-11T00:08:35.192Z,5.30
2022-09-11T00:11:21.898Z,5.57
2022-09-11T00:15:03.450Z,5.82
2022-09-11T00:17:48.914Z,7.70
2022-09-11T00:21:31.058Z,7.45
2022-09-11T00:37:24.904Z,12.77
2022-09-11T00:40:10.565Z,12.90
2022-09-11T00:43:13.908Z,11.00
2022-09-11T00:46:04.678Z,11.80
2022-09-11T00:53:21.046Z,10.38
2022-09-11T00:56:08.411Z,10.23
2022-09-11T00:58:55.744Z,9.45
2022-09-11T01:02:37.804Z,9.32
2022-09-11T01:05:25.143Z,10.77
2022-09-11T01:08:10.730Z,10.45
2022-09-11T01:15:53.209Z,10.35
2022-09-11T01:18:38.862Z,11.80
2022-09-11T01:22:21.174Z,11.93
2022-09-11T01:25:21.611Z,11.98
2022-09-11T01:28:51.249Z,15.27
2022-09-11T01:31:45.861Z,12.77
2022-09-11T01:35:27.662Z,13.57
2022-09-11T01:38:40.693Z,13.00
2022-09-11T01:42:22.763Z,13.00
2022-09-11T01:45:09.452Z,13.02
2022-09-11T01:52:57.959Z,15.73
2022-09-11T01:55:49.984Z,17.58
2022-09-11T02:03:33.019Z,15.88
2022-09-11T02:19:37.781Z,16.57
2022-09-11T02:22:23.293Z,16.65
2022-09-11T02:25:13.695Z,19.30
2022-09-11T02:27:59.390Z,14.60
2022-09-11T02:30:45.873Z,14.30
2022-09-11T02:38:26.917Z,17.73
2022-09-11T02:41:21.801Z,14.02
2022-09-11T02:44:31.801Z,12.90
2022-09-11T02:51:50.841Z,12.85
2022-09-11T02:55:18.817Z,14.32
2022-09-11T02:59:00.729Z,13.00
2022-09-11T03:02:04.454Z,13.30
2022-09-11T03:05:46.561Z,15.10
2022-09-11T03:08:32.350Z,16.10
2022-09-11T03:12:14.763Z,17.30
2022-09-11T03:15:00.401Z,18.02
2022-09-11T03:18:42.440Z,17.52
2022-09-11T03:21:27.660Z,18.48
2022-09-11T03:25:09.937Z,17.70
2022-09-11T03:27:55.488Z,19.25
2022-09-11T03:31:39.380Z,18.23
2022-09-11T03:34:25.767Z,18.77
2022-09-11T03:38:07.820Z,19.73
2022-09-11T03:40:55.033Z,19.27
2022-09-11T04:00:43.213Z,22.23
2022-09-11T04:03:31.541Z,22.02
2022-09-11T04:07:13.583Z,22.88
2022-09-11T04:09:59.090Z,23.38
2022-09-11T04:13:41.110Z,20.73
2022-09-11T04:16:26.797Z,21.77
2022-09-11T04:20:08.809Z,25.98
2022-09-11T04:22:54.263Z,26.33
2022-09-11T04:26:36.624Z,22.23
2022-09-11T04:29:22.565Z,24.67
2022-09-11T04:33:04.845Z,27.00
2022-09-11T04:35:50.407Z,24.77
2022-09-11T04:39:32.423Z,24.15
2022-09-11T04:42:19.429Z,25.77
2022-09-11T04:45:05.178Z,25.42
2022-09-11T04:47:52.770Z,24.77
2022-09-11T04:50:38.154Z,22.25
2022-09-11T04:58:20.234Z,27.08
2022-09-11T05:01:07.446Z,24.52
2022-09-11T05:06:39.134Z,25.48
2022-09-11T05:09:26.887Z,25.30
2022-09-11T05:12:11.987Z,28.95
2022-09-11T05:15:54.272Z,28.17
2022-09-11T05:18:41.270Z,26.00
2022-09-11T05:29:12.174Z,28.90
2022-09-11T05:32:03.032Z,28.13
2022-09-11T05:34:48.359Z,29.45
2022-09-11T05:37:33.990Z,33.42
2022-09-11T05:40:19.520Z,33.67
2022-09-11T05:55:25.079Z,33.45
2022-09-11T05:58:11.352Z,31.65
2022-09-11T06:01:04.770Z,31.63
2022-09-11T06:03:50.768Z,29.70
2022-09-11T06:06:36.307Z,28.48
2022-09-11T06:09:21.799Z,28.40
2022-09-11T06:12:07.429Z,26.00
2022-09-11T06:14:52.707Z,27.15
2022-09-11T06:17:38.295Z,23.27
2022-09-11T06:20:25.492Z,21.48
2022-09-11T06:23:12.429Z,23.38
2022-09-11T06:26:11.766Z,24.42
2022-09-11T06:28:57.268Z,23.85
2022-09-11T06:31:43.075Z,22.88
2022-09-11T06:34:28.632Z,20.85
2022-09-11T06:37:14.338Z,19.33
2022-09-11T06:39:59.622Z,21.88
2022-09-11T06:42:45.608Z,19.27
2022-09-11T06:45:33.969Z,18.42
2022-09-11T06:53:16.471Z,16.90
2022-09-11T06:56:03.721Z,18.02
2022-09-11T06:58:50.371Z,16.60
2022-09-11T07:01:36.010Z,15.70
2022-09-11T07:04:23.700Z,16.35
2022-09-11T07:07:09.360Z,19.73
2022-09-11T07:09:54.743Z,17.77
2022-09-11T07:12:41.684Z,19.70
2022-09-11T07:15:28.062Z,19.48
2022-09-11T07:18:13.617Z,21.37
2022-09-11T07:21:00.090Z,17.70
2022-09-11T07:23:48.776Z,20.25
2022-09-11T07:26:36.344Z,19.40
2022-09-11T07:29:22.374Z,19.55
2022-09-11T07:32:08.533Z,19.35
2022-09-11T07:34:53.978Z,20.88
2022-09-11T07:37:39.644Z,18.02
2022-09-11T07:40:25.310Z,18.55
2022-09-11T07:43:11.005Z,19.70
2022-09-11T07:45:56.683Z,19.30
2022-09-11T07:49:38.962Z,19.08
2022-09-11T07:52:24.473Z,20.33
2022-09-11T07:55:10.496Z,20.33
2022-09-11T07:57:55.807Z,25.73
2022-09-11T08:00:43.307Z,23.88
2022-09-11T08:03:34.046Z,23.40
2022-09-11T08:06:25.101Z,23.50
2022-09-11T08:09:15.209Z,20.85
2022-09-11T08:12:02.144Z,22.08
2022-09-11T08:14:47.590Z,21.20
2022-09-11T08:17:33.243Z,18.98
2022-09-11T08:20:18.884Z,19.33
2022-09-11T08:23:04.610Z,19.10
2022-09-11T08:25:51.256Z,17.55
2022-09-11T08:28:38.517Z,18.55
2022-09-11T08:34:13.180Z,16.92
2022-09-11T08:36:58.481Z,17.55
2022-09-11T08:39:44.240Z,17.65
2022-09-11T08:42:29.663Z,18.20
2022-09-11T08:45:18.302Z,15.82
2022-09-11T08:55:39.628Z,12.55
2022-09-11T08:59:02.528Z,12.30
2022-09-11T09:02:00.071Z,13.98
2022-09-11T09:05:33.183Z,12.32
2022-09-11T09:08:21.691Z,12.13
2022-09-11T09:11:37.358Z,11.15
2022-09-11T09:14:29.245Z,12.15
2022-09-11T09:21:59.555Z,8.90
2022-09-11T09:25:00.384Z,9.88
2022-09-11T09:32:42.752Z,7.70
2022-09-11T09:35:39.419Z,8.30
2022-09-11T09:38:31.639Z,6.80
2022-09-11T09:41:28.239Z,7.78
2022-09-11T09:44:29.152Z,9.30
2022-09-11T09:47:15.331Z,6.97
2022-09-11T09:50:01.697Z,6.90
2022-09-11T09:52:49.882Z,6.55
2022-09-11T09:55:36.164Z,6.68
2022-09-11T09:58:32.571Z,7.20
2022-09-11T10:01:49.767Z,6.97
2022-09-11T10:04:35.485Z,6.27
2022-09-11T10:07:22.658Z,6.32
2022-09-11T10:10:26.727Z,6.50
2022-09-11T10:13:25.197Z,6.28
2022-09-11T10:16:26.075Z,6.22
2022-09-11T10:19:42.379Z,6.45
2022-09-11T10:22:29.271Z,6.18
2022-09-11T10:28:17.414Z,7.30
2022-09-11T10:32:00.133Z,6.18
2022-09-11T10:34:45.870Z,5.20
2022-09-11T10:37:32.048Z,5.97
2022-09-11T10:40:23.175Z,5.60
2022-09-11T10:43:25.618Z,7.03
2022-09-11T10:46:46.095Z,8.25
2022-09-11T10:49:31.543Z,6.30
2022-09-11T10:52:22.345Z,6.47
2022-09-11T10:55:15.895Z,6.43
2022-09-11T10:58:18.949Z,5.60
2022-09-11T11:01:04.671Z,5.78
2022-09-11T11:03:51.079Z,5.97
2022-09-11T11:07:04.484Z,6.53
2022-09-11T11:10:17.019Z,5.47
2022-09-11T11:13:26.607Z,4.82
2022-09-11T11:16:41.454Z,4.75
2022-09-11T11:19:47.179Z,4.60
2022-09-11T11:22:53.737Z,5.25
2022-09-11T11:25:59.308Z,4.95
2022-09-11T11:33:40.939Z,5.10
2022-09-11T11:36:38.462Z,5.60
2022-09-11T11:42:25.926Z,6.95
2022-09-11T11:45:27.347Z,6.47
2022-09-11T11:48:31.375Z,6.35
2022-09-11T11:51:27.586Z,5.00
2022-09-11T11:54:39.900Z,5.85
2022-09-11T11:57:31.354Z,5.28
2022-09-11T12:00:18.950Z,4.53
2022-09-11T12:03:32.503Z,3.72
2022-09-11T12:06:18.217Z,5.10
2022-09-11T12:09:05.534Z,9.25
2022-09-11T12:11:53.767Z,4.55
2022-09-11T12:14:54.237Z,4.13
2022-09-11T12:17:40.898Z,4.18
2022-09-11T12:23:30.487Z,4.13
2022-09-11T12:26:25.078Z,4.30
2022-09-11T12:37:04.717Z,4.20
2022-09-11T12:40:03.840Z,4.05
2022-09-11T12:42:59.157Z,5.78
2022-09-11T12:45:47.879Z,5.20
2022-09-11T12:48:42.732Z,4.57
2022-09-11T12:51:33.929Z,4.10
2022-09-11T12:54:24.303Z,3.90
2022-09-11T12:57:19.375Z,6.10
2022-09-11T13:00:20.388Z,4.40
2022-09-11T13:03:12.288Z,3.80
2022-09-11T13:06:07.616Z,4.70
2022-09-11T13:09:00.069Z,4.10
2022-09-11T13:12:23.852Z,5.88
2022-09-11T13:15:33.935Z,4.45
2022-09-11T13:18:19.689Z,4.00
2022-09-11T13:21:11.452Z,5.20
2022-09-11T13:24:02.996Z,4.57
2022-09-11T13:26:55.441Z,4.25
2022-09-11T13:34:37.937Z,7.30
2022-09-11T13:37:32.898Z,4.65
2022-09-11T13:40:37.294Z,4.45
2022-09-11T13:43:30.834Z,4.72
2022-09-11T13:46:16.384Z,7.88
2022-09-11T13:49:18.118Z,4.13
2022-09-11T13:52:10.870Z,4.00
2022-09-11T13:55:04.613Z,4.07
2022-09-11T13:57:51.314Z,4.40
2022-09-11T14:03:32.333Z,5.13
2022-09-11T14:06:23.595Z,4.35
2022-09-11T14:09:20.235Z,4.00
2022-09-11T14:12:05.991Z,3.85
2022-09-11T14:14:58.253Z,4.20
2022-09-11T14:17:46.563Z,3.60
2022-09-11T14:20:33.056Z,4.00
2022-09-11T14:23:24.668Z,3.65
2022-09-11T14:26:19.740Z,4.65
2022-09-11T14:34:02.219Z,5.95
2022-09-11T14:37:06.487Z,5.40
2022-09-11T14:40:03.306Z,4.25
2022-09-11T14:42:48.867Z,5.07
2022-09-11T14:45:35.169Z,3.93
2022-09-11T14:48:21.088Z,3.45
2022-09-11T14:51:13.675Z,3.60
2022-09-11T14:54:01.357Z,3.30
2022-09-11T14:56:48.206Z,3.33
2022-09-11T14:59:35.559Z,3.20
2022-09-11T15:02:27.913Z,2.92
2022-09-11T15:05:16.636Z,3.35
2022-09-11T15:08:03.932Z,3.20
2022-09-11T15:10:58.107Z,3.20
2022-09-11T15:14:13.499Z,3.03
2022-09-11T15:16:58.182Z,3.50
2022-09-11T15:19:47.726Z,3.08
2022-09-11T15:22:33.156Z,4.35
2022-09-11T15:25:18.846Z,3.20
2022-09-11T15:28:04.105Z,3.20
2022-09-11T15:31:46.397Z,2.92
2022-09-11T15:34:33.022Z,2.95
2022-09-11T15:37:18.468Z,4.45
2022-09-11T15:40:04.366Z,3.50
2022-09-11T15:42:50.086Z,3.33
2022-09-11T15:45:43.007Z,3.50
2022-09-11T15:48:31.051Z,3.13
2022-09-11T15:51:21.367Z,3.35
2022-09-11T15:54:08.945Z,3.50
2022-09-11T15:56:55.004Z,3.47
2022-09-11T16:02:27.162Z,3.30
2022-09-11T16:05:12.662Z,3.35
2022-09-11T16:07:58.231Z,3.50
2022-09-11T16:10:44.054Z,3.50
2022-09-11T16:13:31.571Z,3.60
2022-09-11T16:16:17.903Z,3.13
2022-09-11T16:19:03.845Z,3.42
2022-09-11T16:21:50.093Z,3.20
2022-09-11T16:24:37.597Z,3.17
2022-09-11T16:27:24.375Z,3.08
2022-09-11T16:35:07.094Z,5.53
2022-09-11T16:37:53.715Z,4.65
2022-09-11T16:40:39.138Z,3.45
2022-09-11T16:43:24.818Z,3.03
2022-09-11T16:46:13.171Z,3.20
2022-09-11T16:49:01.665Z,2.90
2022-09-11T16:51:47.832Z,3.00
2022-09-11T16:54:33.162Z,3.60
2022-09-11T16:57:19.218Z,3.40
2022-09-11T17:00:07.777Z,3.70
2022-09-11T17:02:53.094Z,4.07
2022-09-11T17:05:39.132Z,3.40
2022-09-11T17:08:24.978Z,3.90
2022-09-11T17:11:14.259Z,4.05
2022-09-11T17:14:03.831Z,3.63
2022-09-11T17:16:50.165Z,4.20
2022-09-11T17:19:36.123Z,3.83
2022-09-11T17:22:21.685Z,3.72
2022-09-11T17:25:08.189Z,3.65
2022-09-11T17:27:54.357Z,4.30
2022-09-11T17:31:36.742Z,4.20
2022-09-11T17:34:22.077Z,6.22
2022-09-11T17:37:07.665Z,4.03
2022-09-11T17:39:53.847Z,4.57
2022-09-11T17:42:39.422Z,4.72
2022-09-11T17:45:25.137Z,4.50
2022-09-11T17:48:10.662Z,4.93
2022-09-11T17:51:07.351Z,4.63
2022-09-11T17:53:56.319Z,5.57
2022-09-11T17:56:42.359Z,5.45
2022-09-11T17:59:28.124Z,5.82
2022-09-11T18:02:18.247Z,8.38
2022-09-11T18:05:04.278Z,4.68
2022-09-11T18:07:50.922Z,4.93
2022-09-11T18:10:37.556Z,4.40
2022-09-11T18:13:22.922Z,6.43
2022-09-11T18:16:11.469Z,6.40
2022-09-11T18:18:57.365Z,6.25
2022-09-11T18:21:44.689Z,5.60
2022-09-11T18:24:33.289Z,4.82
2022-09-11T18:27:19.884Z,5.65
2022-09-11T18:35:02.460Z,4.88
2022-09-11T18:37:48.040Z,5.30
2022-09-11T18:40:34.107Z,4.40
2022-09-11T18:43:19.452Z,4.65
2022-09-11T18:46:05.377Z,5.10
2022-09-11T18:48:51.144Z,5.60
2022-09-11T18:51:36.813Z,8.00
2022-09-11T18:54:22.147Z,5.38
2022-09-11T18:57:08.682Z,6.53
2022-09-11T18:59:54.256Z,5.63
2022-09-11T19:02:39.841Z,7.43
2022-09-11T19:05:25.375Z,5.70
2022-09-11T19:08:10.878Z,5.60
2022-09-11T19:10:56.153Z,5.55
2022-09-11T19:13:42.619Z,5.50
2022-09-11T19:19:14.125Z,7.18
2022-09-11T19:22:00.326Z,5.80
2022-09-11T19:24:46.089Z,6.55
2022-09-11T19:27:31.848Z,6.25
2022-09-11T19:31:14.066Z,5.82
2022-09-11T19:34:03.661Z,6.57
2022-09-11T19:36:51.393Z,6.03
2022-09-11T19:39:37.118Z,5.50
2022-09-11T19:42:23.924Z,6.97
2022-09-11T19:45:09.387Z,7.60
2022-09-11T19:47:54.794Z,6.88
2022-09-11T19:50:47.286Z,6.43
2022-09-11T19:53:32.990Z,6.65
2022-09-11T19:56:19.239Z,7.03
2022-09-11T19:59:06.307Z,6.65
2022-09-11T20:04:37.502Z,8.45
2022-09-11T20:07:23.117Z,6.30
2022-09-11T20:10:10.206Z,7.05
2022-09-11T20:12:55.514Z,6.90
2022-09-11T20:15:41.988Z,8.07
2022-09-11T20:18:27.152Z,6.83
2022-09-11T20:21:15.690Z,8.80
2022-09-11T20:24:01.415Z,6.88
2022-09-11T20:26:46.643Z,6.88
2022-09-11T20:29:32.920Z,7.50
2022-09-11T20:33:15.140Z,8.35
2022-09-11T20:36:00.794Z,7.90
2022-09-11T20:38:53.489Z,10.50
2022-09-11T20:41:39.381Z,9.57
2022-09-11T20:44:24.904Z,7.72
2022-09-11T20:47:12.178Z,7.80
2022-09-11T20:52:46.641Z,7.90
2022-09-11T20:55:32.186Z,8.55
2022-09-11T20:58:17.478Z,8.60
2022-09-11T21:01:04.033Z,7.15
2022-09-11T21:03:54.380Z,8.20
2022-09-11T21:06:40.278Z,8.25
2022-09-11T21:09:25.632Z,8.27
2022-09-11T21:12:11.450Z,7.93
2022-09-11T21:14:56.594Z,7.05
2022-09-11T21:17:42.245Z,8.70
2022-09-11T21:20:27.618Z,8.25
2022-09-11T21:23:13.026Z,9.20
2022-09-11T21:25:59.081Z,7.13
2022-09-11T21:28:44.781Z,10.88
2022-09-11T21:36:26.901Z,8.30
2022-09-11T21:39:12.785Z,10.75
2022-09-11T21:41:58.235Z,7.93
2022-09-11T21:44:43.741Z,9.50
2022-09-11T21:47:29.271Z,10.90
2022-09-11T21:50:14.798Z,10.55
2022-09-11T21:53:00.473Z,12.40
2022-09-11T21:55:47.401Z,10.43
2022-09-11T21:58:33.233Z,9.27
2022-09-11T22:01:20.444Z,9.10
2022-09-11T22:04:06.221Z,10.15
2022-09-11T22:06:51.746Z,7.90
2022-09-11T22:09:38.188Z,8.15
2022-09-11T22:12:23.935Z,8.18
2022-09-11T22:15:10.348Z,7.93
2022-09-11T22:17:55.472Z,8.00
2022-09-11T22:20:41.855Z,11.52
2022-09-11T22:23:29.049Z,8.60
2022-09-11T22:26:17.979Z,10.68
2022-09-11T22:29:04.213Z,8.02
2022-09-11T22:32:46.528Z,10.98
2022-09-11T22:35:34.356Z,9.52
2022-09-11T22:38:19.990Z,9.15
2022-09-11T22:41:06.299Z,8.57
2022-09-11T22:43:52.029Z,10.70
2022-09-11T22:46:37.634Z,10.35
2022-09-11T22:49:23.643Z,10.98
2022-09-11T22:52:09.350Z,14.77
2022-09-11T22:54:54.803Z,9.43
2022-09-11T22:57:40.345Z,10.40
2022-09-11T23:00:25.929Z,9.73
2022-09-11T23:03:11.425Z,11.98
2022-09-11T23:06:17.342Z,9.63
2022-09-11T23:09:05.351Z,12.43
2022-09-11T23:11:50.548Z,11.52
2022-09-11T23:14:36.248Z,11.13
2022-09-11T23:17:21.901Z,10.32
2022-09-11T23:20:07.518Z,12.98
2022-09-11T23:22:52.827Z,10.70
2022-09-11T23:25:43.156Z,10.52
2022-09-11T23:28:28.407Z,16.23
2022-09-11T23:36:10.405Z,11.48
2022-09-11T23:38:55.965Z,13.77
2022-09-11T23:41:41.616Z,10.93
2022-09-11T23:44:27.269Z,11.52
2022-09-11T23:47:12.885Z,15.32
2022-09-11T23:49:58.184Z,11.43
2022-09-11T23:52:43.729Z,14.23
2022-09-11T23:55:29.191Z,9.80
2022-09-11T23:58:14.539Z,12.07
